Kalenakliyat 2 — TCBA7 — position and weather

sailwx.info

Track history (hours):
 
Tides and Currents Weather Stations Pressure Air Temp Water Temp Dewpoint Dewpoint Depression Visibility Wind Speed Wind Dir Waves Ship Positions

Kalenakliyat 2

Last reported at 2015-Apr-01 12:12 UTC. Time now 2015-Apr-02 07:48 UTC.
Position N 40°50' E 029°04'.

Length 73 m; draft 4.3 m.

Type: Cargo ship. MMSI: 271002023.

Date/timePositionNaut miles runAvg speedWind from/ knotsBaromVisibWave heightAir tempDewpointWater temp
2015-Apr-01 12:12N 40°50' E 029°04'32 2.0
2015-Mar-31 20:27N 41°16' E 029°29'8 8.8
2015-Mar-31 19:33N 41°16' E 029°40'  
2015-Mar-24 16:30N 41°16' E 029°40'8 8.4
2015-Mar-24 15:33N 41°16' E 029°29'9 8.6
2015-Mar-24 14:33N 41°15' E 029°18'23 4.6
2015-Mar-24 09:33N 40°54' E 029°07'4 4.0
2015-Mar-24 08:33N 40°53' E 029°12'0 0.0
2015-Mar-24 07:33N 40°53' E 029°12'0 0.0
2015-Mar-24 06:33N 40°53' E 029°12'0 0.1
2015-Mar-24 05:33N 40°53' E 029°12'0 0.1
2015-Mar-24 04:33N 40°53' E 029°12'0 0.0
2015-Mar-24 03:33N 40°53' E 029°12'0 0.0
2015-Mar-24 02:33N 40°53' E 029°12'3 2.8
2015-Mar-24 01:33N 40°51' E 029°09'8 8.0
2015-Mar-24 00:33N 40°49' E 028°59'7 7.3
2015-Mar-23 23:32N 40°49' E 028°49'9 7.9
2015-Mar-23 22:22N 40°47' E 028°37'  
Track history (hours):
 
Tides and Currents Weather Stations Pressure Air Temp Water Temp Dewpoint Dewpoint Depression Visibility Wind Speed Wind Dir Waves Ship Positions

Kalenakliyat 2

Last reported at 2015-Apr-01 12:12 UTC. Time now 2015-Apr-02 07:48 UTC.
Position N 40°50' E 029°04'.

Length 73 m; draft 4.3 m.

Type: Cargo ship. MMSI: 271002023.

Date/timePositionNaut miles runAvg speedWind from/ knotsBaromVisibWave heightAir tempDewpointWater temp
2015-Apr-01 12:12N 40°50' E 029°04'32 2.0
2015-Mar-31 20:27N 41°16' E 029°29'8 8.8
2015-Mar-31 19:33N 41°16' E 029°40'  
2015-Mar-24 16:30N 41°16' E 029°40'8 8.4
2015-Mar-24 15:33N 41°16' E 029°29'9 8.6
2015-Mar-24 14:33N 41°15' E 029°18'23 4.6
2015-Mar-24 09:33N 40°54' E 029°07'4 4.0
2015-Mar-24 08:33N 40°53' E 029°12'0 0.0
2015-Mar-24 07:33N 40°53' E 029°12'0 0.0
2015-Mar-24 06:33N 40°53' E 029°12'0 0.1
2015-Mar-24 05:33N 40°53' E 029°12'0 0.1
2015-Mar-24 04:33N 40°53' E 029°12'0 0.0
2015-Mar-24 03:33N 40°53' E 029°12'0 0.0
2015-Mar-24 02:33N 40°53' E 029°12'3 2.8
2015-Mar-24 01:33N 40°51' E 029°09'8 8.0
2015-Mar-24 00:33N 40°49' E 028°59'7 7.3
2015-Mar-23 23:32N 40°49' E 028°49'9 7.9
2015-Mar-23 22:22N 40°47' E 028°37'  

Dump ship's entire track history